Time;durP1;ratioP1;P1;durP2;ratioP2;P2;SDS_P1;SDS_P2;PMS_P1;PMS_P2;Temp;Humidity;BMP_temperature;BMP_pressure;BME280_temperature;BME280_humidity;BME280_pressure;Samples;Min_cycle;Max_cycle;Signal;HPM_P1;HPM_P2
2022/10/27 00:01:40;;;;;;;56.63;31.07;;;7.80;99.90;;;;;;5070747;28;20107;-58
2022/10/27 00:04:05;;;;;;;53.05;29.00;;;7.90;99.90;;;;;;5070711;28;20162;-57
2022/10/27 00:06:31;;;;;;;51.35;31.75;;;7.90;99.90;;;;;;5071137;28;20058;-60
2022/10/27 00:08:56;;;;;;;52.70;29.45;;;7.90;99.90;;;;;;5070820;28;20598;-61
2022/10/27 00:11:22;;;;;;;49.83;30.38;;;7.90;99.90;;;;;;5070862;28;20037;-57
2022/10/27 00:13:48;;;;;;;52.35;32.25;;;7.70;99.90;;;;;;5070632;28;20025;-56
2022/10/27 00:16:14;;;;;;;55.47;31.05;;;7.70;99.90;;;;;;5070517;28;20040;-59
2022/10/27 00:18:44;;;;;;;53.30;30.20;;;7.70;99.90;;;;;;5070581;28;20024;-60
2022/10/27 00:21:13;;;;;;;51.85;30.05;;;7.70;99.90;;;;;;5052579;28;20025;-60
2022/10/27 00:23:39;;;;;;;48.03;28.13;;;7.70;99.90;;;;;;5070504;28;20036;-59
2022/10/27 00:26:07;;;;;;;45.55;28.10;;;7.70;99.90;;;;;;5070770;28;20020;-56
2022/10/27 00:28:33;;;;;;;47.70;28.77;;;7.70;99.90;;;;;;5070635;28;20537;-58
2022/10/27 00:31:03;;;;;;;56.13;29.52;;;7.70;99.90;;;;;;5070414;28;20040;-58
2022/10/27 00:33:29;;;;;;;49.13;28.92;;;7.60;99.90;;;;;;5070367;28;20716;-60
2022/10/27 00:35:55;;;;;;;47.45;28.75;;;7.60;99.90;;;;;;5070401;28;20049;-59
2022/10/27 00:38:22;;;;;;;45.38;28.17;;;7.70;99.90;;;;;;5070383;28;20029;-61
2022/10/27 00:40:48;;;;;;;45.00;27.83;;;7.60;99.90;;;;;;5058276;28;20033;-58
2022/10/27 00:43:24;;;;;;;56.28;27.30;;;7.70;99.90;;;;;;5049921;28;20103;-59
2022/10/27 00:45:50;;;;;;;45.22;27.27;;;7.70;99.90;;;;;;5032222;28;20051;-61
2022/10/27 00:48:16;;;;;;;44.55;27.15;;;7.70;99.90;;;;;;5050196;28;20032;-61
2022/10/27 00:50:41;;;;;;;50.42;27.50;;;7.70;99.90;;;;;;5050062;28;20551;-60
2022/10/27 00:53:08;;;;;;;49.13;28.00;;;7.60;99.90;;;;;;5032091;28;20484;-58
2022/10/27 00:55:37;;;;;;;46.05;28.67;;;7.50;99.90;;;;;;5050286;28;20599;-57
2022/10/27 00:58:06;;;;;;;45.95;28.40;;;7.50;99.90;;;;;;5064994;28;20032;-57
2022/10/27 01:00:35;;;;;;;55.42;29.05;;;7.60;99.90;;;;;;5031463;28;20021;-58
2022/10/27 01:03:01;;;;;;;43.63;27.02;;;7.50;99.90;;;;;;5054542;28;20028;-56
2022/10/27 01:05:28;;;;;;;44.70;27.17;;;7.50;99.90;;;;;;5070381;28;20108;-58
2022/10/27 01:07:56;;;;;;;;;;;7.50;99.90;;;;;;5070925;28;20027;-58
2022/10/27 01:10:22;;;;;;;51.58;29.92;;;7.50;99.90;;;;;;5070340;28;19904;-61
2022/10/27 01:12:49;;;;;;;49.33;28.83;;;7.50;99.90;;;;;;5069857;28;20831;-57
2022/10/27 01:15:15;;;;;;;45.15;27.65;;;7.50;99.90;;;;;;5068367;28;20044;-61
2022/10/27 01:17:49;;;;;;;56.07;29.37;;;7.40;99.90;;;;;;5049941;28;20036;-58
2022/10/27 01:20:48;;;;;;;48.30;28.85;;;7.50;99.90;;;;;;5050144;28;20523;-60
2022/10/27 01:23:27;;;;;;;53.30;30.45;;;7.40;99.90;;;;;;5032120;28;20029;-60
2022/10/27 01:26:17;;;;;;;52.40;28.98;;;7.40;99.90;;;;;;5053395;28;20033;-59
2022/10/27 01:29:10;;;;;;;48.30;28.38;;;7.40;99.90;;;;;;5069721;28;20460;-57
2022/10/27 01:32:12;;;;;;;48.50;28.10;;;7.30;99.90;;;;;;5069760;28;20068;-61
2022/10/27 01:34:45;;;;;;;43.28;27.67;;;7.30;99.90;;;;;;5051870;28;20191;-58
2022/10/27 01:37:21;;;;;;;43.85;27.88;;;7.30;99.90;;;;;;5069528;28;20044;-59
2022/10/27 01:40:08;;;;;;;47.35;27.70;;;7.40;99.90;;;;;;5069938;28;20020;-57
2022/10/27 01:42:53;;;;;;;43.80;26.92;;;7.30;99.90;;;;;;5069756;28;20025;-61
2022/10/27 01:45:29;;;;;;;47.22;26.52;;;7.30;99.90;;;;;;5069864;28;20036;-58
2022/10/27 01:47:56;;;;;;;57.40;28.70;;;7.30;99.90;;;;;;5069654;28;20035;-58
2022/10/27 01:50:37;;;;;;;55.22;29.13;;;7.30;99.90;;;;;;5069958;28;20033;-57
2022/10/27 01:53:03;;;;;;;51.72;27.38;;;7.30;99.90;;;;;;5061002;28;20029;-56
2022/10/27 01:55:44;;;;;;;49.03;26.95;;;7.30;99.90;;;;;;5049440;28;20053;-58
2022/10/27 01:58:13;;;;;;;49.30;28.25;;;7.30;99.90;;;;;;5049518;28;20084;-56
2022/10/27 02:01:10;;;;;;;49.33;28.85;;;7.30;99.90;;;;;;5049608;28;20052;-58
2022/10/27 02:04:04;;;;;;;50.95;29.15;;;7.20;99.90;;;;;;5049823;28;20037;-59
2022/10/27 02:07:09;;;;;;;46.08;28.00;;;7.20;99.90;;;;;;5049282;28;20032;-61
2022/10/27 02:09:38;;;;;;;56.03;28.40;;;7.30;99.90;;;;;;5048746;28;20126;-61
2022/10/27 02:12:10;;;;;;;55.28;30.58;;;7.30;99.90;;;;;;5051866;28;20568;-58
2022/10/27 02:14:37;;;;;;;53.42;29.58;;;7.30;99.90;;;;;;5053492;28;20127;-57
2022/10/27 02:17:07;;;;;;;60.63;30.08;;;7.30;99.90;;;;;;5053232;28;20040;-61
2022/10/27 02:19:35;;;;;;;55.72;30.95;;;7.40;99.90;;;;;;5053119;28;20067;-63
2022/10/27 02:22:03;;;;;;;60.10;30.95;;;7.30;99.90;;;;;;5053219;28;20107;-62
2022/10/27 02:24:29;;;;;;;52.30;30.15;;;7.30;99.90;;;;;;5053062;28;20571;-59
2022/10/27 02:27:01;;;;;;;56.63;31.33;;;7.40;99.90;;;;;;5052507;28;20108;-57
2022/10/27 02:29:40;;;;;;;58.38;30.15;;;7.40;99.90;;;;;;5034249;28;20033;-60
2022/10/27 02:32:10;;;;;;;50.00;29.77;;;7.40;99.90;;;;;;5053053;28;20033;-56
2022/10/27 02:34:37;;;;;;;54.67;29.95;;;7.40;99.90;;;;;;5053114;28;20028;-60
2022/10/27 02:37:05;;;;;;;56.90;30.73;;;7.50;99.90;;;;;;5053097;28;20029;-62
2022/10/27 02:39:30;;;;;;;55.10;32.00;;;7.60;99.90;;;;;;5052932;28;20025;-61
2022/10/27 02:41:56;;;;;;;56.67;30.90;;;7.60;99.90;;;;;;5052908;28;20455;-60
2022/10/27 02:44:22;;;;;;;54.83;33.60;;;7.60;99.90;;;;;;5052727;28;20685;-58
2022/10/27 02:46:47;;;;;;;62.40;34.35;;;7.60;99.90;;;;;;5052710;28;20112;-57
2022/10/27 02:49:13;;;;;;;58.40;33.78;;;7.70;99.90;;;;;;5052714;28;20120;-60
2022/10/27 02:51:39;;;;;;;57.88;34.95;;;7.70;99.90;;;;;;5034826;28;20086;-59
2022/10/27 02:54:04;;;;;;;61.17;35.25;;;7.70;99.90;;;;;;5069352;28;20075;-55
2022/10/27 02:56:30;;;;;;;53.83;35.35;;;7.80;99.90;;;;;;5072624;28;20540;-56
2022/10/27 02:58:55;;;;;;;55.70;33.25;;;7.80;99.90;;;;;;5072561;28;20020;-60
2022/10/27 03:01:21;;;;;;;55.15;34.65;;;7.80;99.90;;;;;;5072409;28;20027;-62
2022/10/27 03:03:47;;;;;;;62.90;33.88;;;7.90;99.90;;;;;;5072578;28;20495;-58
2022/10/27 03:06:12;;;;;;;57.20;32.53;;;7.90;99.90;;;;;;5072512;28;20025;-59
2022/10/27 03:08:38;;;;;;;59.60;34.30;;;8.00;99.90;;;;;;5072165;28;20028;-57
2022/10/27 03:11:04;;;;;;;56.83;32.42;;;8.00;99.90;;;;;;5072530;28;20029;-61
2022/10/27 03:13:29;;;;;;;52.00;32.33;;;8.00;99.90;;;;;;5072179;28;20028;-56
2022/10/27 03:15:55;;;;;;;53.83;33.60;;;8.10;99.90;;;;;;5072268;28;20108;-56
2022/10/27 03:18:20;;;;;;;55.58;31.98;;;8.10;99.90;;;;;;5072120;28;20028;-58
2022/10/27 03:20:46;;;;;;;53.40;32.55;;;8.10;99.90;;;;;;5072068;28;20070;-60
2022/10/27 03:23:13;;;;;;;59.03;33.30;;;8.10;99.90;;;;;;5071202;28;20039;-59
2022/10/27 03:25:42;;;;;;;56.40;31.55;;;8.10;99.90;;;;;;5072140;28;20051;-57
2022/10/27 03:28:12;;;;;;;54.88;31.42;;;8.10;99.90;;;;;;5053860;28;20368;-60
2022/10/27 03:30:38;;;;;;;54.03;32.10;;;8.20;99.90;;;;;;5071948;28;20027;-57
2022/10/27 03:33:04;;;;;;;52.70;31.48;;;8.10;99.90;;;;;;5071956;28;20062;-59
2022/10/27 03:35:30;;;;;;;58.58;34.25;;;8.20;99.90;;;;;;5071902;28;20032;-59
2022/10/27 03:38:00;;;;;;;56.05;32.63;;;8.20;99.90;;;;;;5071650;28;20097;-61
2022/10/27 03:40:27;;;;;;;53.60;33.53;;;8.20;99.90;;;;;;5071843;28;20028;-58
2022/10/27 03:42:57;;;;;;;54.22;31.85;;;8.20;99.90;;;;;;5071529;28;20063;-61
2022/10/27 03:45:25;;;;;;;56.00;32.50;;;8.30;99.90;;;;;;5071744;28;20040;-59
2022/10/27 03:48:02;;;;;;;56.35;33.60;;;8.30;99.90;;;;;;5071579;28;20020;-58
2022/10/27 03:50:28;;;;;;;55.03;30.48;;;8.30;99.90;;;;;;5071609;28;20426;-59
2022/10/27 03:52:54;;;;;;;57.47;30.73;;;8.30;99.90;;;;;;5064640;28;20035;-58
2022/10/27 03:55:20;;;;;;;54.40;33.17;;;8.30;99.90;;;;;;5051351;28;20488;-57
2022/10/27 03:57:45;;;;;;;63.20;33.53;;;8.30;99.90;;;;;;5051494;28;20045;-58
2022/10/27 04:00:11;;;;;;;57.53;32.28;;;8.30;99.90;;;;;;5051201;28;20053;-60
2022/10/27 04:02:37;;;;;;;57.00;33.83;;;8.40;99.90;;;;;;5051308;28;20071;-58
2022/10/27 04:05:03;;;;;;;53.53;32.25;;;8.40;99.90;;;;;;5051295;28;20057;-60
2022/10/27 04:07:28;;;;;;;50.40;32.63;;;8.40;99.90;;;;;;5051200;28;20029;-60
2022/10/27 04:09:54;;;;;;;51.05;31.48;;;8.40;99.90;;;;;;5050848;28;20047;-61
2022/10/27 04:12:20;;;;;;;55.97;34.15;;;8.40;99.90;;;;;;5051160;28;20550;-57
2022/10/27 04:14:47;;;;;;;54.53;33.70;;;8.40;99.90;;;;;;5051102;28;20029;-58
2022/10/27 04:17:13;;;;;;;57.55;34.17;;;8.50;99.90;;;;;;5051162;28;20582;-59
2022/10/27 04:19:39;;;;;;;59.05;33.50;;;8.40;99.90;;;;;;5051151;28;20020;-61
2022/10/27 04:22:04;;;;;;;60.53;37.78;;;8.50;99.90;;;;;;5050942;28;20408;-61
2022/10/27 04:24:30;;;;;;;55.75;35.08;;;8.40;99.90;;;;;;5032840;28;20545;-58
2022/10/27 04:26:55;;;;;;;60.45;36.28;;;8.40;99.90;;;;;;5051051;28;20029;-59
2022/10/27 04:29:21;;;;;;;60.67;37.65;;;8.40;99.90;;;;;;5050787;28;20070;-61
2022/10/27 04:31:46;;;;;;;61.55;36.58;;;8.40;99.90;;;;;;5050636;28;20503;-56
2022/10/27 04:34:12;;;;;;;59.35;37.42;;;8.40;99.90;;;;;;5050562;28;20021;-58
2022/10/27 04:36:38;;;;;;;58.05;34.65;;;8.40;99.90;;;;;;5050731;28;20044;-59
2022/10/27 04:39:03;;;;;;;65.13;37.42;;;8.40;99.90;;;;;;5050843;28;20021;-62
2022/10/27 04:41:30;;;;;;;57.08;35.53;;;8.30;99.90;;;;;;5050814;28;20124;-60
2022/10/27 04:43:56;;;;;;;60.20;35.00;;;8.30;99.90;;;;;;5050311;28;20028;-57
2022/10/27 04:46:21;;;;;;;61.63;34.25;;;8.30;99.90;;;;;;5050750;28;20025;-57
2022/10/27 04:48:47;;;;;;;53.95;33.28;;;8.30;99.90;;;;;;5050483;28;20029;-57
2022/10/27 04:51:13;;;;;;;56.70;35.67;;;8.30;99.90;;;;;;5050482;28;20548;-59
2022/10/27 04:53:39;;;;;;;60.58;36.35;;;8.20;99.90;;;;;;5062984;28;20034;-58
2022/10/27 04:56:05;;;;;;;56.08;34.20;;;8.20;99.90;;;;;;5070045;28;20480;-60
2022/10/27 04:58:30;;;;;;;52.42;35.05;;;8.20;99.90;;;;;;5070322;28;20039;-61
2022/10/27 05:00:56;;;;;;;58.97;35.70;;;8.20;99.90;;;;;;5052094;28;20024;-59
2022/10/27 05:03:21;;;;;;;58.72;36.33;;;8.20;99.90;;;;;;5070062;28;20854;-57
2022/10/27 05:05:47;;;;;;;55.70;37.08;;;8.20;99.90;;;;;;5070079;28;20104;-59
2022/10/27 05:08:13;;;;;;;63.13;37.20;;;8.10;99.90;;;;;;5070122;28;20032;-62
2022/10/27 05:10:38;;;;;;;58.60;36.30;;;8.10;99.90;;;;;;5070062;28;20021;-61
2022/10/27 05:13:04;;;;;;;62.00;38.35;;;8.10;99.90;;;;;;5069909;28;20499;-57
2022/10/27 05:15:30;;;;;;;61.78;38.00;;;8.00;99.90;;;;;;5069843;28;20025;-57
2022/10/27 05:17:56;;;;;;;64.90;38.83;;;8.00;99.90;;;;;;5070045;28;20040;-56
2022/10/27 05:20:21;;;;;;;60.60;38.95;;;8.00;99.90;;;;;;5070256;28;20020;-57
2022/10/27 05:22:47;;;;;;;57.00;36.65;;;8.00;99.90;;;;;;5069881;28;20028;-58
2022/10/27 05:25:13;;;;;;;61.15;36.67;;;8.00;99.90;;;;;;5069884;28;20110;-59
2022/10/27 05:27:39;;;;;;;54.97;36.15;;;8.00;99.90;;;;;;5070287;28;20028;-56
2022/10/27 05:30:06;;;;;;;56.20;32.35;;;8.00;99.90;;;;;;5069773;28;20468;-56
2022/10/27 05:32:31;;;;;;;78.85;43.55;;;8.00;99.90;;;;;;5052557;28;20029;-58
2022/10/27 05:34:57;;;;;;;74.32;45.35;;;8.00;99.90;;;;;;5050162;28;20056;-60
2022/10/27 05:37:23;;;;;;;69.75;40.90;;;8.00;99.90;;;;;;5049561;28;20365;-62
2022/10/27 05:39:49;;;;;;;79.28;44.42;;;7.90;99.90;;;;;;5049842;28;20032;-60
2022/10/27 05:42:14;;;;;;;73.80;45.38;;;8.00;99.90;;;;;;5049773;28;20037;-60
2022/10/27 05:44:40;;;;;;;81.70;45.60;;;8.00;99.90;;;;;;5049825;28;20384;-58
2022/10/27 05:47:06;;;;;;;71.97;44.15;;;8.00;99.90;;;;;;5052517;28;20029;-53
2022/10/27 05:49:32;;;;;;;81.13;44.70;;;8.10;99.90;;;;;;5066268;28;20030;-56
2022/10/27 05:51:58;;;;;;;76.10;45.80;;;8.00;99.90;;;;;;5055866;28;20040;-58
2022/10/27 05:54:24;;;;;;;75.30;45.85;;;8.00;99.90;;;;;;5057611;28;20060;-59
2022/10/27 05:56:50;;;;;;;72.90;44.47;;;8.10;99.90;;;;;;5053590;28;20376;-60
2022/10/27 05:59:16;;;;;;;84.75;49.03;;;8.10;99.90;;;;;;5053579;28;20025;-60
2022/10/27 06:01:42;;;;;;;80.68;46.38;;;8.10;99.90;;;;;;5053454;28;20028;-57
2022/10/27 06:04:08;;;;;;;81.00;48.33;;;8.20;99.90;;;;;;5035626;28;20029;-58
2022/10/27 06:06:33;;;;;;;81.82;49.05;;;8.10;99.90;;;;;;5053331;28;20029;-56
2022/10/27 06:08:59;;;;;;;83.32;49.28;;;8.20;99.90;;;;;;5056242;28;20056;-57
2022/10/27 06:11:25;;;;;;;80.18;48.83;;;8.20;99.90;;;;;;5059664;28;20102;-58
2022/10/27 06:13:51;;;;;;;83.25;48.80;;;8.20;99.90;;;;;;5064163;28;20024;-58
2022/10/27 06:16:22;;;;;;;82.23;48.33;;;8.20;99.90;;;;;;5054822;28;20039;-59
2022/10/27 06:18:47;;;;;;;78.03;47.55;;;8.20;99.90;;;;;;5052207;28;20384;-55
2022/10/27 06:21:13;;;;;;;76.55;46.05;;;8.20;99.90;;;;;;5054618;28;20036;-55
2022/10/27 06:23:40;;;;;;;78.43;45.55;;;8.20;99.90;;;;;;5068180;28;20076;-56
2022/10/27 06:26:07;;;;;;;81.50;49.22;;;8.20;99.90;;;;;;5063471;28;20063;-57
2022/10/27 06:28:33;;;;;;;92.40;50.33;;;8.30;99.90;;;;;;5062012;28;20035;-55
2022/10/27 06:30:58;;;;;;;84.10;49.10;;;8.30;99.90;;;;;;5060188;28;20108;-58
2022/10/27 06:33:24;;;;;;;88.80;51.95;;;8.40;99.90;;;;;;5052958;28;20064;-59
2022/10/27 06:35:49;;;;;;;93.45;49.83;;;8.40;99.90;;;;;;5052613;28;20052;-61
2022/10/27 06:38:15;;;;;;;91.40;52.75;;;8.40;99.90;;;;;;5053157;28;20063;-58
2022/10/27 06:40:45;;;;;;;87.93;51.90;;;8.50;99.90;;;;;;5051858;28;20075;-63
2022/10/27 06:43:11;;;;;;;91.57;52.85;;;8.60;99.90;;;;;;5051162;28;20108;-61
2022/10/27 06:45:38;;;;;;;96.18;54.47;;;8.60;99.90;;;;;;5051086;28;20021;-58
2022/10/27 06:48:05;;;;;;;94.75;54.38;;;8.70;99.90;;;;;;5051014;28;20079;-59
2022/10/27 06:50:32;;;;;;;100.32;57.40;;;8.70;99.90;;;;;;5050820;28;20033;-57
2022/10/27 06:52:58;;;;;;;86.68;53.13;;;8.80;99.90;;;;;;5035260;28;20040;-61
2022/10/27 06:55:23;;;;;;;86.25;52.65;;;9.00;99.90;;;;;;5070981;28;20056;-58
2022/10/27 06:57:49;;;;;;;89.53;53.75;;;9.10;99.90;;;;;;5069157;28;20036;-57
2022/10/27 07:00:15;;;;;;;97.10;57.47;;;9.20;99.90;;;;;;5071081;28;20066;-62
2022/10/27 07:02:41;;;;;;;82.57;52.53;;;9.30;99.90;;;;;;5070936;28;20115;-60
2022/10/27 07:05:07;;;;;;;87.03;53.58;;;9.40;99.90;;;;;;5071673;28;20021;-62
2022/10/27 07:07:33;;;;;;;89.78;55.30;;;9.50;99.90;;;;;;5073216;28;20499;-63
2022/10/27 07:09:59;;;;;;;84.88;53.05;;;9.60;99.90;;;;;;5070212;28;20118;-62
2022/10/27 07:12:25;;;;;;;75.65;45.38;;;9.80;99.90;;;;;;5071090;28;20375;-68
2022/10/27 07:14:51;;;;;;;70.50;40.33;;;10.00;99.90;;;;;;5053365;28;20027;-64
2022/10/27 07:17:16;;;;;;;78.82;42.92;;;10.20;99.90;;;;;;5070596;28;20036;-62
2022/10/27 07:19:42;;;;;;;65.57;40.08;;;10.40;99.90;;;;;;5070324;28;20039;-58
2022/10/27 07:22:07;;;;;;;92.35;45.85;;;10.50;99.90;;;;;;5071492;28;20032;-59
2022/10/27 07:24:33;;;;;;;77.35;44.03;;;10.70;99.90;;;;;;5072223;28;20434;-64
2022/10/27 07:26:59;;;;;;;85.47;47.08;;;10.90;99.90;;;;;;5072783;28;20036;-59
2022/10/27 07:29:24;;;;;;;79.00;44.22;;;11.00;99.90;;;;;;5068527;28;20392;-56
2022/10/27 07:31:50;;;;;;;74.72;42.08;;;11.20;99.90;;;;;;5058816;28;20033;-58
2022/10/27 07:34:16;;;;;;;77.43;45.40;;;11.40;99.90;;;;;;5071064;28;20024;-62
2022/10/27 07:36:41;;;;;;;63.50;37.95;;;11.50;99.90;;;;;;5070961;28;20082;-60
2022/10/27 07:39:07;;;;;;;69.00;40.05;;;11.80;99.90;;;;;;5070687;28;20020;-59
2022/10/27 07:41:33;;;;;;;60.58;36.63;;;12.00;99.90;;;;;;5070579;28;20023;-58
2022/10/27 07:43:59;;;;;;;61.35;36.53;;;12.30;99.90;;;;;;5068053;28;20021;-58
2022/10/27 07:46:24;;;;;;;40.95;24.85;;;12.60;99.90;;;;;;5071406;28;20027;-60
2022/10/27 07:48:50;;;;;;;38.65;22.73;;;13.30;99.90;;;;;;5071278;28;20031;-63
2022/10/27 07:51:16;;;;;;;34.55;20.92;;;13.00;99.90;;;;;;5070974;28;20016;-59
2022/10/27 07:53:42;;;;;;;33.13;21.08;;;13.30;99.90;;;;;;5071126;28;20027;-59
2022/10/27 07:56:07;;;;;;;38.25;21.80;;;13.90;99.90;;;;;;5070846;28;20052;-61
2022/10/27 07:58:33;;;;;;;39.15;24.27;;;13.40;99.90;;;;;;5070946;28;20028;-62
2022/10/27 08:00:59;;;;;;;39.40;22.75;;;13.70;99.90;;;;;;5070746;28;20020;-58
2022/10/27 08:03:28;;;;;;;45.10;23.08;;;14.80;99.90;;;;;;5070895;28;20031;-56
2022/10/27 08:05:54;;;;;;;39.97;24.75;;;14.40;99.90;;;;;;5071091;28;20071;-58
2022/10/27 08:08:20;;;;;;;39.42;23.00;;;14.20;99.90;;;;;;5070653;28;20024;-60
2022/10/27 08:10:49;;;;;;;35.88;19.58;;;14.80;99.90;;;;;;5070535;28;20025;-62
2022/10/27 08:13:15;;;;;;;36.67;21.67;;;14.60;99.90;;;;;;5070517;28;20021;-59
2022/10/27 08:15:41;;;;;;;34.30;19.55;;;14.30;99.90;;;;;;5070604;28;20050;-63
2022/10/27 08:18:09;;;;;;;30.10;18.73;;;14.50;99.90;;;;;;5070498;28;20028;-58
2022/10/27 08:20:40;;;;;;;35.25;21.13;;;14.60;99.90;;;;;;5070468;28;20063;-60
2022/10/27 08:23:11;;;;;;;33.20;20.10;;;14.80;99.90;;;;;;5070382;28;20025;-60
2022/10/27 08:25:37;;;;;;;33.38;20.23;;;14.60;99.90;;;;;;5070321;28;20476;-60
2022/10/27 08:28:03;;;;;;;36.20;21.23;;;14.30;99.90;;;;;;5070412;28;20044;-61
2022/10/27 08:30:31;;;;;;;32.05;18.83;;;14.50;99.90;;;;;;5070450;28;20063;-61
2022/10/27 08:33:00;;;;;;;32.92;18.80;;;14.80;99.90;;;;;;5070311;28;20067;-59
2022/10/27 08:35:27;;;;;;;33.78;19.38;;;15.50;99.90;;;;;;5070100;28;20023;-60
2022/10/27 08:37:56;;;;;;;;;;;16.00;99.90;;;;;;5070851;28;20159;-58
2022/10/27 08:40:22;;;;;;;31.73;18.42;;;15.90;99.90;;;;;;5071603;28;19904;-62
2022/10/27 08:43:19;;;;;;;35.63;19.25;;;16.80;99.90;;;;;;5070875;28;20032;-62
2022/10/27 08:45:53;;;;;;;30.42;19.50;;;16.10;99.90;;;;;;5049196;28;20040;-57
2022/10/27 08:48:23;;;;;;;33.42;19.63;;;16.00;99.90;;;;;;5071341;28;20025;-58
2022/10/27 08:50:49;;;;;;;31.88;20.08;;;16.60;99.90;;;;;;5070996;28;20468;-59
2022/10/27 08:53:28;;;;;;;30.27;19.27;;;16.30;99.90;;;;;;5071035;28;20039;-58
2022/10/27 08:56:02;;;;;;;31.55;19.40;;;16.20;99.90;;;;;;5070868;28;20051;-59
2022/10/27 08:58:41;;;;;;;27.73;17.25;;;16.50;99.90;;;;;;5071016;28;20027;-59
2022/10/27 09:01:16;;;;;;;30.25;19.33;;;17.80;99.90;;;;;;5071181;28;20025;-58
2022/10/27 09:04:00;;;;;;;31.33;20.00;;;16.10;99.90;;;;;;5070074;28;20045;-57
2022/10/27 09:06:29;;;;;;;34.80;19.00;;;16.80;99.90;;;;;;5052837;28;20379;-60
2022/10/27 09:09:42;;;;;;;31.05;18.52;;;17.00;99.90;;;;;;5070932;28;20031;-59
2022/10/27 09:12:25;;;;;;;29.75;19.17;;;15.80;99.90;;;;;;5025846;28;20040;-57
2022/10/27 09:15:06;;;;;;;33.42;18.83;;;15.70;99.90;;;;;;5070858;28;20059;-59
2022/10/27 09:17:39;;;;;;;36.65;19.25;;;16.90;99.90;;;;;;5070704;28;20067;-59
2022/10/27 09:20:16;;;;;;;29.52;17.55;;;16.50;99.90;;;;;;5070530;28;20105;-56
2022/10/27 09:22:42;;;;;;;29.88;19.83;;;17.00;99.90;;;;;;5052664;28;20107;-57
2022/10/27 09:25:21;;;;;;;29.02;18.05;;;17.20;99.90;;;;;;5069163;28;20112;-56
2022/10/27 09:27:55;;;;;;;28.70;18.42;;;18.30;99.90;;;;;;5050753;28;20109;-61
2022/10/27 09:30:21;;;;;;;28.23;18.08;;;18.50;99.90;;;;;;5050823;28;20044;-60
2022/10/27 09:32:54;;;;;;;31.52;16.20;;;19.30;99.90;;;;;;5050363;28;20477;-61
2022/10/27 09:35:25;;;;;;;22.67;14.70;;;17.70;99.90;;;;;;5051076;28;20110;-61
2022/10/27 09:37:52;;;;;;;28.38;17.20;;;18.90;99.90;;;;;;5053446;28;20036;-56
2022/10/27 09:40:23;;;;;;;30.88;17.90;;;20.10;99.90;;;;;;5071024;28;20064;-61
2022/10/27 09:42:54;;;;;;;29.70;19.40;;;20.40;99.90;;;;;;5070705;28;20036;-60
2022/10/27 09:45:24;;;;;;;22.98;14.43;;;20.30;99.90;;;;;;5070635;28;20078;-57
2022/10/27 09:47:54;;;;;;;27.20;14.85;;;20.10;99.90;;;;;;5070574;28;20031;-58
2022/10/27 09:50:35;;;;;;;25.02;13.93;;;19.70;99.90;;;;;;5071102;28;20021;-59
2022/10/27 09:53:02;;;;;;;28.98;17.13;;;18.90;99.90;;;;;;5070531;28;20024;-57
2022/10/27 09:55:49;;;;;;;25.05;15.32;;;19.20;99.90;;;;;;5070441;28;20047;-59
2022/10/27 09:58:16;;;;;;;27.00;15.60;;;19.10;99.90;;;;;;5070573;28;20060;-57
2022/10/27 10:00:41;;;;;;;24.05;14.85;;;20.30;99.90;;;;;;5070780;28;20025;-59
2022/10/27 10:03:19;;;;;;;23.50;14.15;;;19.40;99.90;;;;;;5070306;28;20380;-59
2022/10/27 10:05:46;;;;;;;22.52;13.30;;;19.70;99.90;;;;;;5070418;28;20024;-60
2022/10/27 10:08:24;;;;;;;22.10;13.52;;;21.00;99.90;;;;;;5070297;28;20055;-58
2022/10/27 10:10:58;;;;;;;28.48;13.60;;;20.50;99.90;;;;;;5070397;28;20032;-58
2022/10/27 10:13:26;;;;;;;24.38;15.05;;;21.10;99.90;;;;;;5070028;28;20025;-58
2022/10/27 10:16:10;;;;;;;24.58;14.93;;;20.50;99.90;;;;;;5070378;28;20464;-57
2022/10/27 10:18:56;;;;;;;26.42;15.40;;;20.80;99.90;;;;;;5070127;28;20031;-57
2022/10/27 10:21:22;;;;;;;22.33;14.32;;;21.20;99.90;;;;;;5070212;28;20028;-59
2022/10/27 10:23:47;;;;;;;25.20;15.60;;;21.30;99.90;;;;;;5070157;28;20025;-57
2022/10/27 10:26:28;;;;;;;24.23;15.38;;;22.00;99.90;;;;;;5070077;28;20025;-59
2022/10/27 10:29:04;;;;;;;24.67;13.95;;;21.70;99.90;;;;;;5069627;28;20082;-56
2022/10/27 10:31:30;;;;;;;18.67;12.30;;;21.40;99.90;;;;;;5069807;28;20052;-57
2022/10/27 10:34:21;;;;;;;22.23;12.77;;;20.90;99.90;;;;;;5055077;28;20020;-61
2022/10/27 10:36:49;;;;;;;21.42;11.52;;;21.80;99.90;;;;;;5073189;28;20033;-57
2022/10/27 10:39:26;;;;;;;17.38;10.90;;;21.40;99.90;;;;;;5058988;28;20044;-58
2022/10/27 10:42:06;;;;;;;25.02;13.45;;;20.90;99.90;;;;;;5053310;28;20052;-58
2022/10/27 10:44:32;;;;;;;16.92;11.35;;;20.80;99.90;;;;;;5053166;28;20021;-59
2022/10/27 10:46:58;;;;;;;18.88;11.07;;;21.60;99.90;;;;;;5053329;28;20031;-58
2022/10/27 10:49:29;;;;;;;15.90;9.40;;;21.20;99.90;;;;;;5052974;28;20025;-60
2022/10/27 10:52:04;;;;;;;13.65;8.45;;;22.00;99.90;;;;;;5052891;28;20029;-57
2022/10/27 10:54:40;;;;;;;14.93;8.95;;;22.80;99.90;;;;;;5052887;28;20507;-57
2022/10/27 10:57:26;;;;;;;17.00;8.88;;;22.30;97.70;;;;;;5052782;28;20036;-58
2022/10/27 10:59:54;;;;;;;19.13;7.85;;;21.50;99.00;;;;;;5052888;28;20028;-58
2022/10/27 11:02:27;;;;;;;14.15;8.35;;;22.00;99.50;;;;;;5064858;28;20029;-58
2022/10/27 11:04:55;;;;;;;15.38;7.85;;;20.40;99.00;;;;;;5072676;28;20017;-59
2022/10/27 11:07:30;;;;;;;14.07;9.15;;;20.40;99.90;;;;;;5072875;28;20399;-60
2022/10/27 11:10:03;;;;;;;17.30;8.98;;;21.60;99.90;;;;;;5072791;28;20518;-58
2022/10/27 11:12:31;;;;;;;16.38;9.50;;;21.90;99.90;;;;;;5072532;28;20032;-61
2022/10/27 11:15:02;;;;;;;18.70;10.80;;;20.90;99.90;;;;;;5071363;28;20044;-57
2022/10/27 11:17:31;;;;;;;16.42;10.52;;;20.30;99.90;;;;;;5071505;28;20040;-58
2022/10/27 11:19:58;;;;;;;19.17;12.35;;;20.90;99.90;;;;;;5071240;28;20025;-58
2022/10/27 11:22:26;;;;;;;15.65;8.90;;;21.30;99.90;;;;;;5071302;28;20506;-58
2022/10/27 11:25:05;;;;;;;10.80;5.78;;;21.90;99.90;;;;;;5053463;28;20025;-56
2022/10/27 11:28:11;;;;;;;12.93;5.07;;;22.20;99.20;;;;;;5070639;28;20025;-55
2022/10/27 11:30:50;;;;;;;10.93;5.35;;;22.20;99.10;;;;;;5000560;28;20034;-60
2022/10/27 11:33:46;;;;;;;14.23;6.45;;;22.30;99.30;;;;;;5071581;28;20036;-60
2022/10/27 11:36:20;;;;;;;11.75;7.32;;;22.40;98.10;;;;;;5070849;28;20025;-59
2022/10/27 11:39:31;;;;;;;15.05;7.50;;;21.20;99.00;;;;;;5069992;28;20364;-58
2022/10/27 11:42:07;;;;;;;14.57;8.35;;;21.90;99.90;;;;;;5048978;28;20872;-59
2022/10/27 11:45:19;;;;;;;15.23;8.80;;;21.20;99.90;;;;;;5070840;28;20020;-56
2022/10/27 11:47:57;;;;;;;20.70;11.57;;;20.90;99.90;;;;;;5007413;28;20093;-59
2022/10/27 11:50:33;;;;;;;22.00;11.27;;;20.50;99.90;;;;;;5065821;28;20265;-59
2022/10/27 11:53:01;;;;;;;20.33;11.00;;;21.00;99.90;;;;;;5069058;28;20067;-57
2022/10/27 11:55:57;;;;;;;20.00;12.00;;;20.70;99.90;;;;;;5070908;28;20679;-59
2022/10/27 11:58:46;;;;;;;18.80;12.00;;;20.30;99.90;;;;;;5069658;28;20728;-57
2022/10/27 12:01:54;;;;;;;20.60;11.95;;;19.70;99.90;;;;;;5070635;28;20048;-57
2022/10/27 12:04:19;;;;;;;33.80;13.18;;;19.50;99.90;;;;;;5071379;28;20032;-56
2022/10/27 12:06:52;;;;;;;26.60;14.00;;;19.40;99.90;;;;;;5071653;28;20098;-58
2022/10/27 12:09:27;;;;;;;25.58;13.18;;;19.60;99.90;;;;;;5069235;28;20545;-58
2022/10/27 12:12:11;;;;;;;25.00;14.75;;;19.80;99.90;;;;;;5053131;28;20035;-57
2022/10/27 12:14:37;;;;;;;24.95;13.70;;;21.20;99.90;;;;;;5068866;28;20028;-56
2022/10/27 12:17:27;;;;;;;24.75;14.25;;;22.30;98.70;;;;;;5071098;28;20512;-57
2022/10/27 12:19:55;;;;;;;24.60;14.68;;;22.60;98.80;;;;;;5070324;28;20024;-58
2022/10/27 12:22:27;;;;;;;33.55;15.63;;;22.70;98.40;;;;;;5071317;28;20044;-56
2022/10/27 12:25:01;;;;;;;28.75;14.05;;;22.50;98.60;;;;;;5071013;28;20016;-57
2022/10/27 12:27:34;;;;;;;22.77;14.68;;;22.20;99.60;;;;;;5071046;28;20020;-60
2022/10/27 12:30:09;;;;;;;34.45;14.77;;;22.20;99.90;;;;;;5068895;28;20025;-58
2022/10/27 12:33:00;;;;;;;27.85;15.60;;;22.10;99.90;;;;;;5053174;28;20577;-57
2022/10/27 12:35:55;;;;;;;25.98;15.20;;;21.50;99.90;;;;;;5069890;28;20499;-58
2022/10/27 12:38:53;;;;;;;23.63;13.18;;;20.90;99.90;;;;;;5069110;28;20052;-58
2022/10/27 12:41:40;;;;;;;30.35;13.35;;;20.30;99.90;;;;;;5067827;28;20432;-58
2022/10/27 12:44:18;;;;;;;22.10;12.23;;;20.60;99.90;;;;;;5069472;28;20119;-57
2022/10/27 12:47:02;;;;;;;;;;;20.90;99.90;;;;;;5069844;28;20031;-58
2022/10/27 12:49:56;;;;;;;27.30;13.02;;;21.00;99.90;;;;;;5069544;28;19904;-56
2022/10/27 12:52:26;;;;;;;21.30;12.88;;;21.20;99.90;;;;;;5068592;28;20609;-61